Aviation Digital Data Service (ADDS)

Output produced by TAFs form (0843 UTC 18 August 2017)
found at http://aviationweather.gov/adds/tafs/
 
KCNY 180531Z 1806/1906 25003KT P6SM SKC 
     FM181800 31006KT P6SM SKC 
     FM190200 25004KT P6SM SKC